Terminal Aerodrome Forecast
Issued by NWS

Home | Current Version | Previous Version | Text Only | Print | Product List | Glossary On
Versions: 1 2 3 4 5 6 7 8 9 10 11 12 13 14 15 16
000
FTUS45 KTFX 220500 AAA
TAFHVR
TAF AMD
KHVR 220544Z 2206/2306 02008KT P6SM OVC015
     FM220900 04008KT P6SM -RA SCT008 OVC015
      TEMPO 2210/2214 3SM BR BKN008=

USA.gov is the U.S. government's official web portal to all federal, state and local government web resources and services.